Time;durP1;ratioP1;P1;durP2;ratioP2;P2;SDS_P1;SDS_P2;PMS_P1;PMS_P2;Temp;Humidity;BMP_temperature;BMP_pressure;BME280_temperature;BME280_humidity;BME280_pressure;Samples;Min_cycle;Max_cycle;Signal;HPM_P1;HPM_P2
2023/06/20 00:00:51;;;;;;;6.75;5.93;;;;;;;;;;5010845;28;20231;-77
2023/06/20 00:03:18;;;;;;;8.40;5.60;;;;;;;;;;5011686;28;20745;-77
2023/06/20 00:05:45;;;;;;;6.53;5.93;;;;;;;;;;5050347;28;20234;-77
2023/06/20 00:08:12;;;;;;;6.00;5.40;;;;;;;;;;5043906;28;20210;-77
2023/06/20 00:10:39;;;;;;;6.63;6.00;;;;;;;;;;5030624;28;20238;-77
2023/06/20 00:13:07;;;;;;;7.00;5.78;;;;;;;;;;5031384;28;20210;-78
2023/06/20 00:15:41;;;;;;;6.28;5.68;;;;;;;;;;5030548;28;20257;-78
2023/06/20 00:18:08;;;;;;;6.78;6.13;;;;;;;;;;5033346;28;20211;-78
2023/06/20 00:20:36;;;;;;;6.60;5.85;;;;;;;;;;5043599;28;20280;-78
2023/06/20 00:23:03;;;;;;;7.07;6.40;;;;;;;;;;5055227;28;20206;-78
2023/06/20 00:25:30;;;;;;;6.78;6.07;;;;;;;;;;5053790;28;20234;-78
2023/06/20 00:27:57;;;;;;;7.25;6.38;;;;;;;;;;5055042;28;20221;-78
2023/06/20 00:30:24;;;;;;;6.53;5.93;;;;;;;;;;5054250;28;20616;-78
2023/06/20 00:32:52;;;;;;;6.63;5.97;;;;;;;;;;5054789;28;20668;-78
2023/06/20 00:35:19;;;;;;;7.13;6.43;;;;;;;;;;5042237;28;20222;-78
2023/06/20 00:37:46;;;;;;;6.50;5.90;;;;;;;;;;5034671;28;20229;-78
2023/06/20 00:40:13;;;;;;;7.50;6.70;;;;;;;;;;5018983;28;20726;-78
2023/06/20 00:42:40;;;;;;;8.32;7.60;;;;;;;;;;5014755;28;20238;-78
2023/06/20 00:45:27;;;;;;;7.72;6.72;;;;;;;;;;5013972;28;20238;-78
2023/06/20 00:47:57;;;;;;;7.40;6.57;;;;;;;;;;5014841;28;20200;-78
2023/06/20 00:50:26;;;;;;;7.00;6.30;;;;;;;;;;5014189;28;20235;-78
2023/06/20 00:52:55;;;;;;;7.90;6.50;;;;;;;;;;4995573;28;20231;-78
2023/06/20 00:55:22;;;;;;;7.07;6.40;;;;;;;;;;5002274;28;20263;-78
2023/06/20 00:57:50;;;;;;;6.95;6.35;;;;;;;;;;5010692;28;20327;-78
2023/06/20 01:00:17;;;;;;;8.77;6.75;;;;;;;;;;5010383;28;20593;-78
2023/06/20 01:02:46;;;;;;;6.68;6.07;;;;;;;;;;5013817;28;20234;-79
2023/06/20 01:05:15;;;;;;;6.50;5.90;;;;;;;;;;5011367;28;20231;-78
2023/06/20 01:07:44;;;;;;;7.32;6.72;;;;;;;;;;5012306;28;20207;-79
2023/06/20 01:10:15;;;;;;;6.85;6.25;;;;;;;;;;5014054;28;20227;-78
2023/06/20 01:12:45;;;;;;;6.50;5.90;;;;;;;;;;5014179;28;20226;-79
2023/06/20 01:15:15;;;;;;;6.82;6.22;;;;;;;;;;5013648;28;20713;-80
2023/06/20 01:17:44;;;;;;;7.35;6.25;;;;;;;;;;5014147;28;20228;-81
2023/06/20 01:20:16;;;;;;;7.22;6.22;;;;;;;;;;5014012;28;20231;-83
2023/06/20 01:22:46;;;;;;;6.28;5.65;;;;;;;;;;5014724;28;20266;-83
2023/06/20 01:25:18;;;;;;;6.68;6.05;;;;;;;;;;5014032;28;20223;-83
2023/06/20 01:27:52;;;;;;;7.32;5.88;;;;;;;;;;5014479;28;20211;-83
2023/06/20 01:30:22;;;;;;;8.55;6.18;;;;;;;;;;5012972;28;20235;-85
2023/06/20 01:32:52;;;;;;;6.40;5.53;;;;;;;;;;5014566;28;20203;-85
2023/06/20 01:35:23;;;;;;;6.60;5.93;;;;;;;;;;5013594;28;20314;-85
2023/06/20 01:37:54;;;;;;;6.55;5.95;;;;;;;;;;5014361;28;20250;-84
2023/06/20 01:40:22;;;;;;;8.60;6.40;;;;;;;;;;5014067;28;20227;-84
2023/06/20 01:42:50;;;;;;;7.97;6.57;;;;;;;;;;5014377;28;20204;-83
2023/06/20 01:45:18;;;;;;;8.77;7.05;;;;;;;;;;5013491;28;20227;-84
2023/06/20 01:47:45;;;;;;;7.93;7.15;;;;;;;;;;5014297;28;20215;-83
2023/06/20 01:50:14;;;;;;;7.50;6.88;;;;;;;;;;5013408;28;20227;-84
2023/06/20 01:52:41;;;;;;;8.57;7.70;;;;;;;;;;5013654;28;20226;-83
2023/06/20 01:55:11;;;;;;;8.60;7.80;;;;;;;;;;5013197;28;20239;-83
2023/06/20 01:57:38;;;;;;;6.95;6.25;;;;;;;;;;5013404;28;20729;-83
2023/06/20 02:00:08;;;;;;;6.90;6.03;;;;;;;;;;4993916;28;20240;-83
2023/06/20 02:02:35;;;;;;;9.27;6.68;;;;;;;;;;5001768;28;20227;-83
2023/06/20 02:05:03;;;;;;;8.18;7.32;;;;;;;;;;5013234;28;20235;-83
2023/06/20 02:07:31;;;;;;;6.88;6.18;;;;;;;;;;5013878;28;20204;-83
2023/06/20 02:09:58;;;;;;;8.70;6.68;;;;;;;;;;4994896;28;20326;-83
2023/06/20 02:12:27;;;;;;;8.95;7.88;;;;;;;;;;4994216;28;20232;-83
2023/06/20 02:14:54;;;;;;;8.07;7.38;;;;;;;;;;4993627;28;20247;-83
2023/06/20 02:17:21;;;;;;;8.05;7.15;;;;;;;;;;4993820;28;20227;-84
2023/06/20 02:19:48;;;;;;;7.40;6.70;;;;;;;;;;4993311;28;20729;-84
2023/06/20 02:22:16;;;;;;;7.80;7.00;;;;;;;;;;5003771;28;20637;-83
2023/06/20 02:24:45;;;;;;;7.65;6.93;;;;;;;;;;5012864;28;20236;-83
2023/06/20 02:27:13;;;;;;;8.02;7.22;;;;;;;;;;5012955;28;20622;-83
2023/06/20 02:29:44;;;;;;;8.52;7.60;;;;;;;;;;5012765;28;20251;-83
2023/06/20 02:32:13;;;;;;;9.95;7.45;;;;;;;;;;5013457;28;20223;-83
2023/06/20 02:34:42;;;;;;;9.38;8.48;;;;;;;;;;5032742;28;20233;-83
2023/06/20 02:37:09;;;;;;;9.43;7.70;;;;;;;;;;5032801;28;20222;-83
2023/06/20 02:39:36;;;;;;;9.80;8.80;;;;;;;;;;5021751;28;20728;-83
2023/06/20 02:42:03;;;;;;;9.02;8.13;;;;;;;;;;5012856;28;20285;-83
2023/06/20 02:44:30;;;;;;;9.77;8.60;;;;;;;;;;5012753;28;20238;-90
2023/06/20 02:47:03;;;;;;;9.75;8.75;;;;;;;;;;5014832;28;20693;-89
2023/06/20 02:49:34;;;;;;;9.80;8.38;;;;;;;;;;5014455;28;20241;-90
2023/06/20 02:52:07;;;;;;;9.63;8.60;;;;;;;;;;5015110;28;20278;-91
2023/06/20 02:54:39;;;;;;;9.65;8.65;;;;;;;;;;5014424;28;20263;-91
2023/06/20 02:57:08;;;;;;;10.27;8.48;;;;;;;;;;5014946;28;20212;-90
2023/06/20 02:59:36;;;;;;;10.05;8.98;;;;;;;;;;5014627;28;20235;-90
2023/06/20 03:02:07;;;;;;;9.80;8.32;;;;;;;;;;5014918;28;20215;-90
2023/06/20 03:04:34;;;;;;;10.30;8.40;;;;;;;;;;5014372;28;20224;-91
2023/06/20 03:07:02;;;;;;;9.73;8.70;;;;;;;;;;5014428;28;20199;-90
2023/06/20 03:09:31;;;;;;;10.25;8.20;;;;;;;;;;5013895;28;20230;-91
2023/06/20 03:11:58;;;;;;;8.55;7.75;;;;;;;;;;5014758;28;20223;-90
2023/06/20 03:14:25;;;;;;;9.70;8.05;;;;;;;;;;5014775;28;20242;-90
2023/06/20 03:16:52;;;;;;;8.88;7.95;;;;;;;;;;5014909;28;20227;-89
2023/06/20 03:19:21;;;;;;;9.43;8.07;;;;;;;;;;5013878;28;20707;-90
2023/06/20 03:21:48;;;;;;;8.52;7.68;;;;;;;;;;5014771;28;20231;-89
2023/06/20 03:24:15;;;;;;;9.25;8.35;;;;;;;;;;5014220;28;20235;-89
2023/06/20 03:26:42;;;;;;;9.63;8.63;;;;;;;;;;5009670;28;20238;-90
2023/06/20 03:29:10;;;;;;;9.82;8.35;;;;;;;;;;5014055;28;20322;-90
2023/06/20 03:31:37;;;;;;;9.23;8.27;;;;;;;;;;5014550;28;20223;-90
2023/06/20 03:34:04;;;;;;;8.65;7.50;;;;;;;;;;5013979;28;20230;-89
2023/06/20 03:36:32;;;;;;;9.57;8.68;;;;;;;;;;5014024;28;20207;-89
2023/06/20 03:38:59;;;;;;;8.85;7.90;;;;;;;;;;5013022;28;20235;-88
2023/06/20 03:41:26;;;;;;;10.15;7.90;;;;;;;;;;5013225;28;20227;-88
2023/06/20 03:43:53;;;;;;;9.88;8.98;;;;;;;;;;5012719;28;20230;-88
2023/06/20 03:46:20;;;;;;;9.35;8.30;;;;;;;;;;5012908;28;20580;-88
2023/06/20 03:48:47;;;;;;;10.10;9.10;;;;;;;;;;5012749;28;20727;-87
2023/06/20 03:51:14;;;;;;;9.43;8.52;;;;;;;;;;5013103;28;20717;-89
2023/06/20 03:53:43;;;;;;;10.05;8.30;;;;;;;;;;5012888;28;20238;-89
2023/06/20 03:56:10;;;;;;;10.43;8.18;;;;;;;;;;5004753;28;20210;-89
2023/06/20 03:58:37;;;;;;;9.57;8.57;;;;;;;;;;5017834;28;20254;-89
2023/06/20 04:01:06;;;;;;;8.57;7.75;;;;;;;;;;5041543;28;20310;-89
2023/06/20 04:03:33;;;;;;;9.95;8.77;;;;;;;;;;5033030;28;20267;-89
2023/06/20 04:06:01;;;;;;;10.10;8.70;;;;;;;;;;5033208;28;20210;-89
2023/06/20 04:08:29;;;;;;;8.90;8.00;;;;;;;;;;5032010;28;20544;-89
2023/06/20 04:10:57;;;;;;;9.48;8.48;;;;;;;;;;5016761;28;20223;-89
2023/06/20 04:13:24;;;;;;;9.80;8.80;;;;;;;;;;5011802;28;20286;-88
2023/06/20 04:15:51;;;;;;;9.27;8.35;;;;;;;;;;4992783;28;20876;-88
2023/06/20 04:18:18;;;;;;;12.18;8.88;;;;;;;;;;4992718;28;20251;-88
2023/06/20 04:20:45;;;;;;;10.35;8.45;;;;;;;;;;4993114;28;20236;-89
2023/06/20 04:23:12;;;;;;;8.88;8.07;;;;;;;;;;4993627;28;20573;-88
2023/06/20 04:25:39;;;;;;;9.18;8.18;;;;;;;;;;4993036;28;20809;-89
2023/06/20 04:28:08;;;;;;;10.68;8.15;;;;;;;;;;4993010;28;20686;-89
2023/06/20 04:30:35;;;;;;;8.90;8.07;;;;;;;;;;4992140;28;20236;-88
2023/06/20 04:33:02;;;;;;;10.23;8.20;;;;;;;;;;4993106;28;20212;-89
2023/06/20 04:35:29;;;;;;;9.95;8.55;;;;;;;;;;4992381;28;20247;-89
2023/06/20 04:38:01;;;;;;;28.33;11.35;;;;;;;;;;5012391;28;20230;-90
2023/06/20 04:40:28;;;;;;;10.02;8.77;;;;;;;;;;5047472;28;20253;-89
2023/06/20 04:42:55;;;;;;;11.23;8.55;;;;;;;;;;5053221;28;20209;-90
2023/06/20 04:45:24;;;;;;;9.10;8.20;;;;;;;;;;5049248;28;20260;-88
2023/06/20 04:47:51;;;;;;;10.85;9.73;;;;;;;;;;5044828;28;20191;-89
2023/06/20 04:50:18;;;;;;;10.70;8.23;;;;;;;;;;5031317;28;20245;-88
2023/06/20 04:52:45;;;;;;;11.13;8.75;;;;;;;;;;5032222;28;20230;-88
2023/06/20 04:55:12;;;;;;;10.35;8.60;;;;;;;;;;5031181;28;20728;-88
2023/06/20 04:57:39;;;;;;;9.60;8.70;;;;;;;;;;5031514;28;20230;-88
2023/06/20 05:00:10;;;;;;;10.75;9.38;;;;;;;;;;5030723;28;20242;-87
2023/06/20 05:02:42;;;;;;;9.73;8.82;;;;;;;;;;5031217;28;20230;-87
2023/06/20 05:05:09;;;;;;;9.43;8.50;;;;;;;;;;5028064;28;20610;-87
2023/06/20 05:07:37;;;;;;;10.43;9.40;;;;;;;;;;5035493;28;20210;-87
2023/06/20 05:10:04;;;;;;;11.18;8.52;;;;;;;;;;5020024;28;20231;-86
2023/06/20 05:12:32;;;;;;;12.98;9.20;;;;;;;;;;5014292;28;20224;-86
2023/06/20 05:14:59;;;;;;;9.13;8.23;;;;;;;;;;5027569;28;20553;-86
2023/06/20 05:17:26;;;;;;;9.63;8.60;;;;;;;;;;5034242;28;20222;-86
2023/06/20 05:19:55;;;;;;;8.55;7.72;;;;;;;;;;5021192;28;20289;-86
2023/06/20 05:22:22;;;;;;;10.18;8.63;;;;;;;;;;5014728;28;20231;-86
2023/06/20 05:24:49;;;;;;;9.45;8.48;;;;;;;;;;5014095;28;20620;-86
2023/06/20 05:27:17;;;;;;;8.98;8.07;;;;;;;;;;5014337;28;20299;-83
2023/06/20 05:29:44;;;;;;;8.80;8.00;;;;;;;;;;5013546;28;20234;-84
2023/06/20 05:32:11;;;;;;;9.52;8.65;;;;;;;;;;5014279;28;20260;-83
2023/06/20 05:34:38;;;;;;;12.50;7.75;;;;;;;;;;5013632;28;20231;-83
2023/06/20 05:37:06;;;;;;;8.57;7.63;;;;;;;;;;5011044;28;20242;-83
2023/06/20 05:39:33;;;;;;;8.88;7.72;;;;;;;;;;5013550;28;20239;-83
2023/06/20 05:42:00;;;;;;;7.85;6.13;;;;;;;;;;5014037;28;20262;-83
2023/06/20 05:44:27;;;;;;;6.75;6.15;;;;;;;;;;5013599;28;20242;-83
2023/06/20 05:46:54;;;;;;;8.90;6.55;;;;;;;;;;5013618;28;20210;-83
2023/06/20 05:49:22;;;;;;;7.32;6.35;;;;;;;;;;5013765;28;20600;-82
2023/06/20 05:51:49;;;;;;;8.95;8.05;;;;;;;;;;5013659;28;20220;-83
2023/06/20 05:54:17;;;;;;;6.82;6.18;;;;;;;;;;5013436;28;20238;-83
2023/06/20 05:56:44;;;;;;;6.57;5.90;;;;;;;;;;5013554;28;20204;-83
2023/06/20 05:59:11;;;;;;;6.70;5.80;;;;;;;;;;5020197;28;20312;-83
2023/06/20 06:01:40;;;;;;;8.20;6.50;;;;;;;;;;5028200;28;20227;-83
2023/06/20 06:04:07;;;;;;;7.93;6.45;;;;;;;;;;5033395;28;20317;-83
2023/06/20 06:06:34;;;;;;;6.47;5.88;;;;;;;;;;5033415;28;20234;-83
2023/06/20 06:09:01;;;;;;;6.78;5.88;;;;;;;;;;5032610;28;20229;-83
2023/06/20 06:11:29;;;;;;;5.93;5.38;;;;;;;;;;5033459;28;20226;-83
2023/06/20 06:13:57;;;;;;;6.53;5.85;;;;;;;;;;5032939;28;20257;-83
2023/06/20 06:16:24;;;;;;;4.78;4.45;;;;;;;;;;5023967;28;20229;-82
2023/06/20 06:18:51;;;;;;;5.97;5.47;;;;;;;;;;5029321;28;20281;-83
2023/06/20 06:21:19;;;;;;;6.28;5.50;;;;;;;;;;5032010;28;20235;-83
2023/06/20 06:23:47;;;;;;;5.72;5.13;;;;;;;;;;5039922;28;20715;-83
2023/06/20 06:26:14;;;;;;;5.32;4.82;;;;;;;;;;5030602;28;20864;-82
2023/06/20 06:28:43;;;;;;;5.93;5.32;;;;;;;;;;5028683;28;20247;-82
2023/06/20 06:31:11;;;;;;;6.82;5.47;;;;;;;;;;5019959;28;20227;-83
2023/06/20 06:33:39;;;;;;;6.03;5.53;;;;;;;;;;5020020;28;20206;-82
2023/06/20 06:36:06;;;;;;;5.55;5.05;;;;;;;;;;5004748;28;20666;-83
2023/06/20 06:38:33;;;;;;;7.47;5.30;;;;;;;;;;5011875;28;20673;-82
2023/06/20 06:41:00;;;;;;;7.00;5.05;;;;;;;;;;5023779;28;20242;-82
2023/06/20 06:43:28;;;;;;;5.93;5.40;;;;;;;;;;5017510;28;20207;-82
2023/06/20 06:45:57;;;;;;;10.20;5.60;;;;;;;;;;5034277;28;20614;-82
2023/06/20 06:48:24;;;;;;;5.85;5.20;;;;;;;;;;5027261;28;20206;-81
2023/06/20 06:50:51;;;;;;;5.60;5.10;;;;;;;;;;5038604;28;20226;-83
2023/06/20 06:53:19;;;;;;;6.07;5.47;;;;;;;;;;5039180;28;20279;-82
2023/06/20 06:55:47;;;;;;;5.85;5.35;;;;;;;;;;5038803;28;20218;-82
2023/06/20 06:58:14;;;;;;;6.32;5.72;;;;;;;;;;5031204;28;20662;-82
2023/06/20 07:00:41;;;;;;;6.00;5.40;;;;;;;;;;5030537;28;20317;-82
2023/06/20 07:03:10;;;;;;;6.20;5.60;;;;;;;;;;5030999;28;20215;-82
2023/06/20 07:05:37;;;;;;;6.82;6.05;;;;;;;;;;5030432;28;20238;-82
2023/06/20 07:08:05;;;;;;;6.00;5.50;;;;;;;;;;5031858;28;20195;-82
2023/06/20 07:10:32;;;;;;;6.90;6.20;;;;;;;;;;5014456;28;20231;-81
2023/06/20 07:13:00;;;;;;;6.18;5.60;;;;;;;;;;5011362;28;20234;-82
2023/06/20 07:15:27;;;;;;;6.13;5.63;;;;;;;;;;5010767;28;20401;-82
2023/06/20 07:17:54;;;;;;;8.55;6.22;;;;;;;;;;5018200;28;20235;-82
2023/06/20 07:20:22;;;;;;;7.20;6.50;;;;;;;;;;5010479;28;20231;-82
2023/06/20 07:22:49;;;;;;;7.95;6.10;;;;;;;;;;5010795;28;20217;-82
2023/06/20 07:25:19;;;;;;;6.47;5.88;;;;;;;;;;5010895;28;20238;-82
2023/06/20 07:27:46;;;;;;;7.45;6.47;;;;;;;;;;5006104;28;20343;-81
2023/06/20 07:30:13;;;;;;;8.98;6.60;;;;;;;;;;5011154;28;20720;-81
2023/06/20 07:32:40;;;;;;;6.35;5.80;;;;;;;;;;5013223;28;20231;-81
2023/06/20 07:35:07;;;;;;;7.93;6.88;;;;;;;;;;5004328;28;20656;-82
2023/06/20 07:37:36;;;;;;;9.70;6.97;;;;;;;;;;5013126;28;20212;-82
2023/06/20 07:40:06;;;;;;;6.65;6.05;;;;;;;;;;5009234;28;20262;-84
2023/06/20 07:42:33;;;;;;;7.65;6.25;;;;;;;;;;5008773;28;20327;-81
2023/06/20 07:45:00;;;;;;;7.50;6.85;;;;;;;;;;5011744;28;20249;-82
2023/06/20 07:47:27;;;;;;;6.95;6.25;;;;;;;;;;5012768;28;20215;-82
2023/06/20 07:49:54;;;;;;;7.55;6.82;;;;;;;;;;5011383;28;20321;-83
2023/06/20 07:52:21;;;;;;;8.38;7.57;;;;;;;;;;5010153;28;20278;-82
2023/06/20 07:54:50;;;;;;;7.82;7.13;;;;;;;;;;5009811;28;20231;-81
2023/06/20 07:57:17;;;;;;;7.05;6.35;;;;;;;;;;5010839;28;20215;-83
2023/06/20 07:59:44;;;;;;;7.68;6.97;;;;;;;;;;5009715;28;20243;-82
2023/06/20 08:02:11;;;;;;;7.07;6.38;;;;;;;;;;5015173;28;20263;-85
2023/06/20 08:04:38;;;;;;;7.88;7.07;;;;;;;;;;5009615;28;20234;-85
2023/06/20 08:07:06;;;;;;;6.95;6.28;;;;;;;;;;5009496;28;20203;-85
2023/06/20 08:09:33;;;;;;;7.57;6.88;;;;;;;;;;5009724;28;20227;-84
2023/06/20 08:12:01;;;;;;;6.93;6.32;;;;;;;;;;5007545;28;20254;-85
2023/06/20 08:14:28;;;;;;;7.55;6.75;;;;;;;;;;5015839;28;20234;-85
2023/06/20 08:16:55;;;;;;;7.85;7.05;;;;;;;;;;5019366;28;20212;-85
2023/06/20 08:19:22;;;;;;;9.40;6.18;;;;;;;;;;5022592;28;20239;-85
2023/06/20 08:21:49;;;;;;;7.25;6.65;;;;;;;;;;5029664;28;20226;-88
2023/06/20 08:24:17;;;;;;;7.63;6.93;;;;;;;;;;5029420;28;20238;-86
2023/06/20 08:26:44;;;;;;;7.90;7.10;;;;;;;;;;5030122;28;20215;-85
2023/06/20 08:29:12;;;;;;;6.78;6.22;;;;;;;;;;5024327;28;20239;-86
2023/06/20 08:31:40;;;;;;;6.93;6.32;;;;;;;;;;5030027;28;20230;-86
2023/06/20 08:34:07;;;;;;;7.43;6.82;;;;;;;;;;5028720;28;20740;-85
2023/06/20 08:36:34;;;;;;;7.32;6.70;;;;;;;;;;5021737;28;20673;-85
2023/06/20 08:39:02;;;;;;;7.20;6.60;;;;;;;;;;5030559;28;20238;-85
2023/06/20 08:41:30;;;;;;;7.15;6.45;;;;;;;;;;5033439;28;20234;-85
2023/06/20 08:43:57;;;;;;;7.07;6.47;;;;;;;;;;5027058;28;20314;-85
2023/06/20 08:46:26;;;;;;;7.55;6.75;;;;;;;;;;5013883;28;20208;-87
2023/06/20 08:48:54;;;;;;;7.10;6.38;;;;;;;;;;5017926;28;20230;-87
2023/06/20 08:51:22;;;;;;;7.38;6.70;;;;;;;;;;5033719;28;20238;-85
2023/06/20 08:53:50;;;;;;;7.82;6.95;;;;;;;;;;5029184;28;20238;-86
2023/06/20 08:56:18;;;;;;;7.40;6.70;;;;;;;;;;5033795;28;20225;-86
2023/06/20 08:58:48;;;;;;;7.28;6.68;;;;;;;;;;5032999;28;20715;-85
2023/06/20 09:01:17;;;;;;;7.40;6.40;;;;;;;;;;5033498;28;20237;-86
2023/06/20 09:03:45;;;;;;;7.43;5.97;;;;;;;;;;5033125;28;20235;-85
2023/06/20 09:06:12;;;;;;;6.70;6.10;;;;;;;;;;5025766;28;20203;-87
2023/06/20 09:08:40;;;;;;;6.82;6.22;;;;;;;;;;5040398;28;20660;-87
2023/06/20 09:11:08;;;;;;;6.40;5.80;;;;;;;;;;5034691;28;20242;-85
2023/06/20 09:13:35;;;;;;;6.68;5.80;;;;;;;;;;5031693;28;20230;-84
2023/06/20 09:16:06;;;;;;;5.80;5.28;;;;;;;;;;5032473;28;20214;-83
2023/06/20 09:18:34;;;;;;;8.57;6.03;;;;;;;;;;5032647;28;20225;-83
2023/06/20 09:21:03;;;;;;;6.55;5.95;;;;;;;;;;5032164;28;20723;-85
2023/06/20 09:23:30;;;;;;;6.15;5.55;;;;;;;;;;5031536;28;20221;-83
2023/06/20 09:25:57;;;;;;;6.32;5.68;;;;;;;;;;5032368;28;20675;-84
2023/06/20 09:28:24;;;;;;;6.60;5.93;;;;;;;;;;5027754;28;20739;-84
2023/06/20 09:30:51;;;;;;;6.47;5.88;;;;;;;;;;5032100;28;20253;-84
2023/06/20 09:33:18;;;;;;;6.95;6.32;;;;;;;;;;5032240;28;20207;-84
2023/06/20 09:35:45;;;;;;;6.20;5.57;;;;;;;;;;5032250;28;20685;-84
2023/06/20 09:38:14;;;;;;;6.95;5.90;;;;;;;;;;5032201;28;20757;-84
2023/06/20 09:40:45;;;;;;;5.90;5.38;;;;;;;;;;5032183;28;20717;-84
2023/06/20 09:43:12;;;;;;;5.80;5.18;;;;;;;;;;5032428;28;20576;-86
2023/06/20 09:45:39;;;;;;;6.07;5.47;;;;;;;;;;5032256;28;20235;-86
2023/06/20 09:48:08;;;;;;;7.25;5.32;;;;;;;;;;5031932;28;20210;-85
2023/06/20 09:50:36;;;;;;;6.25;5.65;;;;;;;;;;5030021;28;20250;-85
2023/06/20 09:53:05;;;;;;;7.50;5.85;;;;;;;;;;5031126;28;20207;-85
2023/06/20 09:55:35;;;;;;;6.78;5.28;;;;;;;;;;5031702;28;20234;-85
2023/06/20 09:58:03;;;;;;;6.47;5.20;;;;;;;;;;5032253;28;20269;-85
2023/06/20 10:00:31;;;;;;;5.75;5.30;;;;;;;;;;5032279;28;20317;-84
2023/06/20 10:03:00;;;;;;;7.20;5.65;;;;;;;;;;5032705;28;20214;-85
2023/06/20 10:05:28;;;;;;;6.28;5.40;;;;;;;;;;5032023;28;20250;-85
2023/06/20 10:07:57;;;;;;;5.35;4.85;;;;;;;;;;5032629;28;20265;-86
2023/06/20 10:10:25;;;;;;;6.15;5.45;;;;;;;;;;5031392;28;20296;-86
2023/06/20 10:12:54;;;;;;;8.75;5.40;;;;;;;;;;5024513;28;20218;-85
2023/06/20 10:15:22;;;;;;;5.00;4.60;;;;;;;;;;5031857;28;20253;-85
2023/06/20 10:17:49;;;;;;;6.00;5.38;;;;;;;;;;5032194;28;20214;-85
2023/06/20 10:20:27;;;;;;;5.68;5.07;;;;;;;;;;5008031;28;20246;-86
2023/06/20 10:22:57;;;;;;;6.20;4.80;;;;;;;;;;5012150;28;20224;-85
2023/06/20 10:25:25;;;;;;;4.88;4.47;;;;;;;;;;5011356;28;20239;-85
2023/06/20 10:27:57;;;;;;;4.75;4.35;;;;;;;;;;5007078;28;20296;-85
2023/06/20 10:30:43;;;;;;;4.40;4.00;;;;;;;;;;5012243;28;20231;-85
2023/06/20 10:33:10;;;;;;;4.57;4.18;;;;;;;;;;5010536;28;20207;-85
2023/06/20 10:35:48;;;;;;;4.47;4.07;;;;;;;;;;5011838;28;20227;-86
2023/06/20 10:38:15;;;;;;;5.95;4.45;;;;;;;;;;5011845;28;20222;-86
2023/06/20 10:40:42;;;;;;;5.18;4.65;;;;;;;;;;5011790;28;20231;-86
2023/06/20 10:43:17;;;;;;;7.53;4.20;;;;;;;;;;5006071;28;20317;-89
2023/06/20 10:45:53;;;;;;;3.67;3.30;;;;;;;;;;5007282;28;20295;-86
2023/06/20 10:48:20;;;;;;;3.85;3.50;;;;;;;;;;5003639;28;20921;-87
2023/06/20 10:50:47;;;;;;;3.72;3.42;;;;;;;;;;5011296;28;20234;-86
2023/06/20 10:53:15;;;;;;;4.07;3.50;;;;;;;;;;5011228;28;20210;-86
2023/06/20 10:55:42;;;;;;;4.65;3.80;;;;;;;;;;5006368;28;20226;-86
2023/06/20 10:58:09;;;;;;;6.85;4.43;;;;;;;;;;5011355;28;20203;-82
2023/06/20 11:00:37;;;;;;;3.97;3.65;;;;;;;;;;5005083;28;20238;-88
2023/06/20 11:03:04;;;;;;;4.53;3.63;;;;;;;;;;5005573;28;20207;-85
2023/06/20 11:05:31;;;;;;;4.95;4.15;;;;;;;;;;5010384;28;20230;-85
2023/06/20 11:07:59;;;;;;;4.03;3.55;;;;;;;;;;5012107;28;20293;-85
2023/06/20 11:10:30;;;;;;;3.40;3.10;;;;;;;;;;5011141;28;20227;-84
2023/06/20 11:12:58;;;;;;;3.70;3.30;;;;;;;;;;5011438;28;20215;-86
2023/06/20 11:15:26;;;;;;;3.42;3.22;;;;;;;;;;5003494;28;20239;-86
2023/06/20 11:17:55;;;;;;;3.60;3.20;;;;;;;;;;5011905;28;20207;-85
2023/06/20 11:20:23;;;;;;;4.05;3.67;;;;;;;;;;5003194;28;20238;-87
2023/06/20 11:22:50;;;;;;;3.90;3.60;;;;;;;;;;5010620;28;20225;-87
2023/06/20 11:25:25;;;;;;;4.05;3.72;;;;;;;;;;5010292;28;20230;-86
2023/06/20 11:27:52;;;;;;;3.92;3.63;;;;;;;;;;5010866;28;20698;-88
2023/06/20 11:30:25;;;;;;;3.40;3.20;;;;;;;;;;5010680;28;20223;-87
2023/06/20 11:33:01;;;;;;;3.70;3.40;;;;;;;;;;5010869;28;20298;-85
2023/06/20 11:35:45;;;;;;;3.90;3.60;;;;;;;;;;5003050;28;20229;-86
2023/06/20 11:38:13;;;;;;;3.78;3.47;;;;;;;;;;5018841;28;20213;-85
2023/06/20 11:40:42;;;;;;;3.92;3.63;;;;;;;;;;5005501;28;20230;-86
2023/06/20 11:43:19;;;;;;;3.85;3.45;;;;;;;;;;5010529;28;20210;-87
2023/06/20 11:45:46;;;;;;;4.18;3.88;;;;;;;;;;5009967;28;20708;-85
2023/06/20 11:48:15;;;;;;;3.92;3.58;;;;;;;;;;5014506;28;20230;-85
2023/06/20 11:50:43;;;;;;;4.18;3.80;;;;;;;;;;5010156;28;20305;-85
2023/06/20 11:53:18;;;;;;;4.40;3.65;;;;;;;;;;5010102;28;20241;-79
2023/06/20 11:55:46;;;;;;;3.85;3.60;;;;;;;;;;5037865;28;20229;-80
2023/06/20 11:58:14;;;;;;;5.85;3.60;;;;;;;;;;5048313;28;20212;-79
2023/06/20 12:00:45;;;;;;;3.97;3.47;;;;;;;;;;5035066;28;20230;-80
2023/06/20 12:03:15;;;;;;;3.85;3.55;;;;;;;;;;5040050;28;20216;-81
2023/06/20 12:05:42;;;;;;;6.22;3.58;;;;;;;;;;5042967;28;20716;-80
2023/06/20 12:08:10;;;;;;;3.88;3.58;;;;;;;;;;5031422;28;20206;-79
2023/06/20 12:10:40;;;;;;;3.97;3.28;;;;;;;;;;5040987;28;20737;-80
2023/06/20 12:13:07;;;;;;;3.75;3.45;;;;;;;;;;5041100;28;20214;-80
2023/06/20 12:15:34;;;;;;;6.72;3.78;;;;;;;;;;5041880;28;20234;-79
2023/06/20 12:18:02;;;;;;;3.72;3.42;;;;;;;;;;5034259;28;20235;-80
2023/06/20 12:20:31;;;;;;;3.50;3.20;;;;;;;;;;5049086;28;20261;-80
2023/06/20 12:22:59;;;;;;;5.07;3.40;;;;;;;;;;5036588;28;20245;-81
2023/06/20 12:25:26;;;;;;;3.60;3.30;;;;;;;;;;5051799;28;20237;-79
2023/06/20 12:27:53;;;;;;;3.80;3.28;;;;;;;;;;5049397;28;20256;-79
2023/06/20 12:30:20;;;;;;;3.20;3.00;;;;;;;;;;5043162;28;20698;-80
2023/06/20 12:32:47;;;;;;;4.10;3.50;;;;;;;;;;5030033;28;20320;-78
2023/06/20 12:35:14;;;;;;;6.70;3.60;;;;;;;;;;5035449;28;20329;-77
2023/06/20 12:37:43;;;;;;;3.90;3.60;;;;;;;;;;5034980;28;20209;-78
2023/06/20 12:40:13;;;;;;;4.18;3.78;;;;;;;;;;5043566;28;20307;-80
2023/06/20 12:42:40;;;;;;;3.40;3.15;;;;;;;;;;5045010;28;20221;-77
2023/06/20 12:45:07;;;;;;;3.80;3.50;;;;;;;;;;5047054;28;20710;-78
2023/06/20 12:47:34;;;;;;;3.65;3.35;;;;;;;;;;5040670;28;20206;-78
2023/06/20 12:50:02;;;;;;;4.20;3.22;;;;;;;;;;5041347;28;20225;-78
2023/06/20 12:52:30;;;;;;;3.55;3.25;;;;;;;;;;5052870;28;20237;-79
2023/06/20 12:55:00;;;;;;;3.75;3.45;;;;;;;;;;5044580;28;20221;-78
2023/06/20 12:57:27;;;;;;;4.05;3.65;;;;;;;;;;5030448;28;20627;-78
2023/06/20 12:59:58;;;;;;;3.53;3.22;;;;;;;;;;5041649;28;20699;-81
2023/06/20 13:02:25;;;;;;;4.30;3.45;;;;;;;;;;5032476;28;20221;-80
2023/06/20 13:04:53;;;;;;;5.22;3.50;;;;;;;;;;5038794;28;20282;-83
2023/06/20 13:07:21;;;;;;;3.70;3.40;;;;;;;;;;5031508;28;20305;-80
2023/06/20 13:09:49;;;;;;;4.05;3.75;;;;;;;;;;5032240;28;20245;-80
2023/06/20 13:12:17;;;;;;;3.50;3.28;;;;;;;;;;5048688;28;20272;-79
2023/06/20 13:14:45;;;;;;;4.63;3.78;;;;;;;;;;5033777;28;20232;-80
2023/06/20 13:17:14;;;;;;;3.53;3.22;;;;;;;;;;5030659;28;20202;-80
2023/06/20 13:19:41;;;;;;;3.88;3.50;;;;;;;;;;5039957;28;20226;-81
2023/06/20 13:22:08;;;;;;;3.58;3.28;;;;;;;;;;5043792;28;20225;-80
2023/06/20 13:24:39;;;;;;;4.35;3.35;;;;;;;;;;5038317;28;20225;-80
2023/06/20 13:27:06;;;;;;;4.00;3.70;;;;;;;;;;5039500;28;20676;-80
2023/06/20 13:29:34;;;;;;;4.05;3.75;;;;;;;;;;5032400;28;20226;-80
2023/06/20 13:32:02;;;;;;;3.97;3.45;;;;;;;;;;5048963;28;20217;-80
2023/06/20 13:34:29;;;;;;;4.30;3.90;;;;;;;;;;5036122;28;20229;-80
2023/06/20 13:36:57;;;;;;;4.70;3.90;;;;;;;;;;5047541;28;20238;-79
2023/06/20 13:39:26;;;;;;;4.70;4.00;;;;;;;;;;5031814;28;20233;-80
2023/06/20 13:41:54;;;;;;;4.40;3.95;;;;;;;;;;5032217;28;20669;-80
2023/06/20 13:44:21;;;;;;;4.78;4.05;;;;;;;;;;5042539;28;20233;-80
2023/06/20 13:46:50;;;;;;;6.82;3.80;;;;;;;;;;5040623;28;20688;-80
2023/06/20 13:49:18;;;;;;;4.45;3.53;;;;;;;;;;5039756;28;20309;-80
2023/06/20 13:51:45;;;;;;;4.10;3.80;;;;;;;;;;5038020;28;20221;-80
2023/06/20 13:54:12;;;;;;;4.05;3.75;;;;;;;;;;5051329;28;20232;-80
2023/06/20 13:56:39;;;;;;;4.85;3.78;;;;;;;;;;5047709;28;20610;-80
2023/06/20 13:59:06;;;;;;;4.45;4.10;;;;;;;;;;5031154;28;20234;-80
2023/06/20 14:01:34;;;;;;;3.95;3.55;;;;;;;;;;5032865;28;20221;-80
2023/06/20 14:04:04;;;;;;;4.93;3.72;;;;;;;;;;5031488;28;20232;-81
2023/06/20 14:06:33;;;;;;;5.72;4.10;;;;;;;;;;5031440;28;20955;-80
2023/06/20 14:09:00;;;;;;;5.90;4.53;;;;;;;;;;5029604;28;20304;-79
2023/06/20 14:11:27;;;;;;;4.85;3.58;;;;;;;;;;5033988;28;20221;-80
2023/06/20 14:13:54;;;;;;;4.18;3.80;;;;;;;;;;5035670;28;20267;-79
2023/06/20 14:16:23;;;;;;;4.15;3.75;;;;;;;;;;5042158;28;20202;-81
2023/06/20 14:18:50;;;;;;;4.68;3.80;;;;;;;;;;5033566;28;20228;-80
2023/06/20 14:21:19;;;;;;;3.88;3.53;;;;;;;;;;5042774;28;20264;-77
2023/06/20 14:23:47;;;;;;;3.85;3.55;;;;;;;;;;5042929;28;20843;-78
2023/06/20 14:26:15;;;;;;;3.92;3.58;;;;;;;;;;5050474;28;20617;-80
2023/06/20 14:28:43;;;;;;;4.60;3.60;;;;;;;;;;5026823;28;20227;-78
2023/06/20 14:31:10;;;;;;;3.97;3.67;;;;;;;;;;5029624;28;20658;-79
2023/06/20 14:33:38;;;;;;;4.05;3.65;;;;;;;;;;5028498;28;20226;-79
2023/06/20 14:36:06;;;;;;;4.55;4.15;;;;;;;;;;5030496;28;20198;-79
2023/06/20 14:38:34;;;;;;;3.83;3.53;;;;;;;;;;5030332;28;20209;-80
2023/06/20 14:41:01;;;;;;;4.32;3.92;;;;;;;;;;5033462;28;20229;-79
2023/06/20 14:43:28;;;;;;;4.88;3.90;;;;;;;;;;5031542;28;20212;-79
2023/06/20 14:45:55;;;;;;;4.07;3.60;;;;;;;;;;5030656;28;20213;-80
2023/06/20 14:48:22;;;;;;;3.88;3.58;;;;;;;;;;5031355;28;20202;-79